sensor_id;sensor_type;location;lat;lon;timestamp;pressure;altitude;pressure_sealevel;temperature;humidity
65394;BME280;52002;49.760;6.512;2022-09-12T00:00:14;100101.05;;;15.67;70.75
65394;BME280;52002;49.760;6.512;2022-09-12T00:02:40;100106.24;;;15.68;70.83
65394;BME280;52002;49.760;6.512;2022-09-12T00:05:06;100102.72;;;15.68;70.93
65394;BME280;52002;49.760;6.512;2022-09-12T00:07:33;100105.42;;;15.68;70.97
65394;BME280;52002;49.760;6.512;2022-09-12T00:09:59;100098.36;;;15.71;71.00
65394;BME280;52002;49.760;6.512;2022-09-12T00:12:25;100101.03;;;15.75;71.04
65394;BME280;52002;49.760;6.512;2022-09-12T00:14:51;100094.15;;;15.76;70.94
65394;BME280;52002;49.760;6.512;2022-09-12T00:17:17;100091.61;;;15.79;70.92
65394;BME280;52002;49.760;6.512;2022-09-12T00:19:43;100089.75;;;15.84;70.89
65394;BME280;52002;49.760;6.512;2022-09-12T00:22:08;100085.41;;;15.87;70.83
65394;BME280;52002;49.760;6.512;2022-09-12T00:24:34;100095.67;;;15.91;70.72
65394;BME280;52002;49.760;6.512;2022-09-12T00:27:00;100089.45;;;15.91;70.62
65394;BME280;52002;49.760;6.512;2022-09-12T00:29:26;100082.88;;;15.93;70.63
65394;BME280;52002;49.760;6.512;2022-09-12T00:31:52;100085.91;;;15.95;70.53
65394;BME280;52002;49.760;6.512;2022-09-12T00:34:18;100081.87;;;15.90;70.45
65394;BME280;52002;49.760;6.512;2022-09-12T00:36:44;100080.03;;;15.87;70.42
65394;BME280;52002;49.760;6.512;2022-09-12T00:39:13;100069.08;;;15.84;70.48
65394;BME280;52002;49.760;6.512;2022-09-12T00:41:42;100070.75;;;15.81;70.49
65394;BME280;52002;49.760;6.512;2022-09-12T00:47:00;100069.25;;;15.74;70.80
65394;BME280;52002;49.760;6.512;2022-09-12T00:49:47;100066.70;;;15.73;70.88
65394;BME280;52002;49.760;6.512;2022-09-12T00:52:36;100068.41;;;15.70;70.99
65394;BME280;52002;49.760;6.512;2022-09-12T00:55:13;100065.72;;;15.70;71.11
65394;BME280;52002;49.760;6.512;2022-09-12T00:57:55;100061.16;;;15.70;71.04
65394;BME280;52002;49.760;6.512;2022-09-12T01:00:25;100054.95;;;15.70;71.08
65394;BME280;52002;49.760;6.512;2022-09-12T01:05:27;100052.59;;;15.67;71.14
65394;BME280;52002;49.760;6.512;2022-09-12T01:07:55;100055.62;;;15.63;71.14
65394;BME280;52002;49.760;6.512;2022-09-12T01:10:22;100049.06;;;15.58;71.06
65394;BME280;52002;49.760;6.512;2022-09-12T01:12:49;100050.91;;;15.57;71.42
65394;BME280;52002;49.760;6.512;2022-09-12T01:15:15;100051.59;;;15.63;71.53
65394;BME280;52002;49.760;6.512;2022-09-12T01:29:40;100046.53;;;15.60;71.61
65394;BME280;52002;49.760;6.512;2022-09-12T01:35:30;100040.14;;;15.57;71.47
65394;BME280;52002;49.760;6.512;2022-09-12T01:38:04;100039.83;;;15.52;71.47
65394;BME280;52002;49.760;6.512;2022-09-12T01:46:42;100039.81;;;15.44;71.80
65394;BME280;52002;49.760;6.512;2022-09-12T01:49:26;100038.11;;;15.39;71.71
65394;BME280;52002;49.760;6.512;2022-09-12T01:52:03;100033.44;;;15.37;71.65
65394;BME280;52002;49.760;6.512;2022-09-12T01:54:41;100029.22;;;15.38;71.53
65394;BME280;52002;49.760;6.512;2022-09-12T01:57:10;100034.78;;;15.37;71.55
65394;BME280;52002;49.760;6.512;2022-09-12T01:59:46;100036.77;;;15.39;71.63
65394;BME280;52002;49.760;6.512;2022-09-12T02:05:22;100028.22;;;15.43;71.48
65394;BME280;52002;49.760;6.512;2022-09-12T02:07:56;100022.16;;;15.41;71.39
65394;BME280;52002;49.760;6.512;2022-09-12T02:10:30;100019.63;;;15.40;71.61
65394;BME280;52002;49.760;6.512;2022-09-12T02:13:10;100019.63;;;15.40;71.61
65394;BME280;52002;49.760;6.512;2022-09-12T02:15:48;100016.26;;;15.38;71.59
65394;BME280;52002;49.760;6.512;2022-09-12T02:18:17;100007.18;;;15.39;71.69
65394;BME280;52002;49.760;6.512;2022-09-12T02:20:46;100014.61;;;15.37;71.80
65394;BME280;52002;49.760;6.512;2022-09-12T02:23:17;100011.06;;;15.36;71.71
65394;BME280;52002;49.760;6.512;2022-09-12T02:25:53;100016.95;;;15.31;71.86
65394;BME280;52002;49.760;6.512;2022-09-12T02:28:28;100012.91;;;15.31;71.85
65394;BME280;52002;49.760;6.512;2022-09-12T02:36:28;100013.25;;;15.32;71.66
65394;BME280;52002;49.760;6.512;2022-09-12T02:39:11;100016.28;;;15.33;71.59
65394;BME280;52002;49.760;6.512;2022-09-12T02:41:37;100014.26;;;15.31;71.73
65394;BME280;52002;49.760;6.512;2022-09-12T02:44:03;100007.20;;;15.30;71.69
65394;BME280;52002;49.760;6.512;2022-09-12T02:46:35;100013.24;;;15.28;71.73
65394;BME280;52002;49.760;6.512;2022-09-12T02:49:07;100015.77;;;15.26;71.64
65394;BME280;52002;49.760;6.512;2022-09-12T02:51:34;100019.47;;;15.25;71.69
65394;BME280;52002;49.760;6.512;2022-09-12T02:54:00;100009.86;;;15.22;71.63
65394;BME280;52002;49.760;6.512;2022-09-12T02:56:29;100015.92;;;15.24;71.57
65394;BME280;52002;49.760;6.512;2022-09-12T02:59:00;100008.38;;;15.24;71.58
65394;BME280;52002;49.760;6.512;2022-09-12T03:10:32;100006.17;;;15.23;71.38
65394;BME280;52002;49.760;6.512;2022-09-12T03:19:05;99997.61;;;15.24;71.66
65394;BME280;52002;49.760;6.512;2022-09-12T03:21:57;99997.77;;;15.22;71.52
65394;BME280;52002;49.760;6.512;2022-09-12T03:24:34;99995.74;;;15.20;71.54
65394;BME280;52002;49.760;6.512;2022-09-12T03:27:16;100001.30;;;15.18;71.61
65394;BME280;52002;49.760;6.512;2022-09-12T03:29:47;99999.12;;;15.14;71.72
65394;BME280;52002;49.760;6.512;2022-09-12T03:32:15;100000.46;;;15.14;71.78
65394;BME280;52002;49.760;6.512;2022-09-12T03:34:41;99996.94;;;15.09;71.80
65394;BME280;52002;49.760;6.512;2022-09-12T03:37:07;99993.37;;;15.05;71.97
65394;BME280;52002;49.760;6.512;2022-09-12T03:39:33;99996.09;;;15.00;72.18
65394;BME280;52002;49.760;6.512;2022-09-12T03:41:58;99996.77;;;15.02;72.16
65394;BME280;52002;49.760;6.512;2022-09-12T03:44:25;99993.03;;;15.03;72.22
65394;BME280;52002;49.760;6.512;2022-09-12T03:46:51;99989.02;;;15.08;72.20
65394;BME280;52002;49.760;6.512;2022-09-12T03:49:17;99982.64;;;15.09;72.01
65394;BME280;52002;49.760;6.512;2022-09-12T03:51:43;99988.19;;;15.07;72.00
65394;BME280;52002;49.760;6.512;2022-09-12T03:54:09;99982.96;;;15.06;71.90
65394;BME280;52002;49.760;6.512;2022-09-12T03:56:36;99988.02;;;15.00;71.78
65394;BME280;52002;49.760;6.512;2022-09-12T03:59:05;99982.11;;;14.97;71.94
65394;BME280;52002;49.760;6.512;2022-09-12T04:01:32;99988.49;;;14.87;71.96
65394;BME280;52002;49.760;6.512;2022-09-12T04:03:58;99986.13;;;14.84;72.21
65394;BME280;52002;49.760;6.512;2022-09-12T04:06:24;99986.30;;;14.87;72.26
65394;BME280;52002;49.760;6.512;2022-09-12T04:08:51;99982.28;;;14.83;72.05
65394;BME280;52002;49.760;6.512;2022-09-12T04:11:20;99982.94;;;14.81;72.26
65394;BME280;52002;49.760;6.512;2022-09-12T04:13:47;99987.81;;;14.77;72.41
65394;BME280;52002;49.760;6.512;2022-09-12T04:16:13;99980.76;;;14.76;72.63
65394;BME280;52002;49.760;6.512;2022-09-12T04:18:40;99976.89;;;14.79;72.49
65394;BME280;52002;49.760;6.512;2022-09-12T04:21:10;99978.91;;;14.81;72.61
65394;BME280;52002;49.760;6.512;2022-09-12T04:23:37;99977.89;;;14.86;72.56
65394;BME280;52002;49.760;6.512;2022-09-12T04:26:04;99972.52;;;14.86;72.44
65394;BME280;52002;49.760;6.512;2022-09-12T04:28:33;99973.55;;;14.85;72.45
65394;BME280;52002;49.760;6.512;2022-09-12T04:31:09;99977.58;;;14.85;72.45
65394;BME280;52002;49.760;6.512;2022-09-12T04:33:39;99974.88;;;14.89;72.36
65394;BME280;52002;49.760;6.512;2022-09-12T04:36:08;99977.75;;;14.87;72.21
65394;BME280;52002;49.760;6.512;2022-09-12T04:38:38;99978.92;;;14.85;72.21
65394;BME280;52002;49.760;6.512;2022-09-12T04:41:28;99977.24;;;14.84;72.17
65394;BME280;52002;49.760;6.512;2022-09-12T04:43:58;99975.04;;;14.83;72.18
65394;BME280;52002;49.760;6.512;2022-09-12T04:46:34;99982.28;;;14.83;72.19
65394;BME280;52002;49.760;6.512;2022-09-12T04:49:03;99975.55;;;14.79;72.19
65394;BME280;52002;49.760;6.512;2022-09-12T04:51:32;99974.20;;;14.79;72.22
65394;BME280;52002;49.760;6.512;2022-09-12T04:54:06;99968.81;;;14.75;72.19
65394;BME280;52002;49.760;6.512;2022-09-12T04:56:39;99965.78;;;14.74;72.12
65394;BME280;52002;49.760;6.512;2022-09-12T04:59:06;99971.80;;;14.67;71.95
65394;BME280;52002;49.760;6.512;2022-09-12T05:01:34;99963.41;;;14.66;72.18
65394;BME280;52002;49.760;6.512;2022-09-12T05:04:02;99956.50;;;14.60;72.34
65394;BME280;52002;49.760;6.512;2022-09-12T05:06:30;99956.65;;;14.58;72.32
65394;BME280;52002;49.760;6.512;2022-09-12T05:08:59;99947.92;;;14.60;72.34
65394;BME280;52002;49.760;6.512;2022-09-12T05:11:29;99956.67;;;14.62;72.34
65394;BME280;52002;49.760;6.512;2022-09-12T05:13:56;99946.59;;;14.60;72.16
65394;BME280;52002;49.760;6.512;2022-09-12T05:16:24;99958.33;;;14.51;72.19
65394;BME280;52002;49.760;6.512;2022-09-12T05:18:51;99954.60;;;14.44;72.57
65394;BME280;52002;49.760;6.512;2022-09-12T05:21:20;99955.78;;;14.41;72.55
65394;BME280;52002;49.760;6.512;2022-09-12T05:23:51;99957.95;;;14.41;72.76
65394;BME280;52002;49.760;6.512;2022-09-12T05:26:18;99953.42;;;14.46;72.83
65394;BME280;52002;49.760;6.512;2022-09-12T05:28:46;99958.47;;;14.49;72.83
65394;BME280;52002;49.760;6.512;2022-09-12T05:31:22;99957.64;;;14.53;72.74
65394;BME280;52002;49.760;6.512;2022-09-12T05:33:50;99957.83;;;14.55;72.79
65394;BME280;52002;49.760;6.512;2022-09-12T05:36:19;99952.96;;;14.59;72.95
65394;BME280;52002;49.760;6.512;2022-09-12T05:38:48;99960.72;;;14.66;72.68
65394;BME280;52002;49.760;6.512;2022-09-12T05:41:17;99960.20;;;14.67;72.32
65394;BME280;52002;49.760;6.512;2022-09-12T05:43:46;99957.40;;;14.68;72.24
65394;BME280;52002;49.760;6.512;2022-09-12T05:46:17;99958.39;;;14.71;72.21
65394;BME280;52002;49.760;6.512;2022-09-12T05:48:46;99963.09;;;14.74;72.15
65394;BME280;52002;49.760;6.512;2022-09-12T05:51:23;99961.27;;;14.74;71.96
65394;BME280;52002;49.760;6.512;2022-09-12T05:53:55;99965.30;;;14.74;71.94
65394;BME280;52002;49.760;6.512;2022-09-12T05:56:24;99952.70;;;14.79;72.02
65394;BME280;52002;49.760;6.512;2022-09-12T05:59:05;99963.47;;;14.83;71.85
65394;BME280;52002;49.760;6.512;2022-09-12T06:01:34;99967.16;;;14.82;71.63
65394;BME280;52002;49.760;6.512;2022-09-12T06:04:03;99971.53;;;14.83;71.86
65394;BME280;52002;49.760;6.512;2022-09-12T06:06:31;99967.14;;;14.86;71.66
65394;BME280;52002;49.760;6.512;2022-09-12T06:09:02;99972.52;;;14.86;71.71
65394;BME280;52002;49.760;6.512;2022-09-12T06:11:31;99981.61;;;14.85;71.62
65394;BME280;52002;49.760;6.512;2022-09-12T06:13:58;99980.58;;;14.86;71.52
65394;BME280;52002;49.760;6.512;2022-09-12T06:16:27;99983.27;;;14.86;71.58
65394;BME280;52002;49.760;6.512;2022-09-12T06:18:56;99984.95;;;14.87;71.52
65394;BME280;52002;49.760;6.512;2022-09-12T06:21:24;99982.27;;;14.87;71.36
65394;BME280;52002;49.760;6.512;2022-09-12T06:23:53;99993.02;;;14.87;71.33
65394;BME280;52002;49.760;6.512;2022-09-12T06:26:20;99993.02;;;14.87;71.25
65394;BME280;52002;49.760;6.512;2022-09-12T06:28:48;100000.61;;;14.92;71.26
65394;BME280;52002;49.760;6.512;2022-09-12T06:31:17;100003.45;;;14.94;70.98
65394;BME280;52002;49.760;6.512;2022-09-12T06:33:46;100004.45;;;14.93;70.84
65394;BME280;52002;49.760;6.512;2022-09-12T06:36:18;100000.09;;;14.92;70.75
65394;BME280;52002;49.760;6.512;2022-09-12T06:38:47;99996.73;;;14.94;70.81
65394;BME280;52002;49.760;6.512;2022-09-12T06:41:15;99997.75;;;14.97;70.70
65394;BME280;52002;49.760;6.512;2022-09-12T06:43:42;99996.09;;;15.00;70.52
65394;BME280;52002;49.760;6.512;2022-09-12T06:46:09;99989.36;;;15.00;70.43
65394;BME280;52002;49.760;6.512;2022-09-12T06:48:37;99992.03;;;15.05;70.51
65394;BME280;52002;49.760;6.512;2022-09-12T06:51:05;99993.73;;;15.10;70.49
65394;BME280;52002;49.760;6.512;2022-09-12T06:53:34;99999.12;;;15.14;70.44
65394;BME280;52002;49.760;6.512;2022-09-12T06:56:06;100002.80;;;15.21;70.43
65394;BME280;52002;49.760;6.512;2022-09-12T06:58:34;100000.30;;;15.24;70.06
65394;BME280;52002;49.760;6.512;2022-09-12T07:01:12;99998.11;;;15.27;70.04
65394;BME280;52002;49.760;6.512;2022-09-12T07:03:51;99995.10;;;15.35;70.12
65394;BME280;52002;49.760;6.512;2022-09-12T07:06:20;99991.03;;;15.55;69.87
65394;BME280;52002;49.760;6.512;2022-09-12T07:08:49;99984.80;;;15.71;69.51
65394;BME280;52002;49.760;6.512;2022-09-12T07:11:22;99991.34;;;15.93;69.40
65394;BME280;52002;49.760;6.512;2022-09-12T07:13:52;99988.25;;;16.21;68.87
65394;BME280;52002;49.760;6.512;2022-09-12T07:16:20;99987.98;;;16.39;68.27
65394;BME280;52002;49.760;6.512;2022-09-12T07:18:57;99988.14;;;16.42;68.17
65394;BME280;52002;49.760;6.512;2022-09-12T07:21:26;99992.86;;;16.40;67.82
65394;BME280;52002;49.760;6.512;2022-09-12T07:23:52;99992.55;;;16.39;67.90
65394;BME280;52002;49.760;6.512;2022-09-12T07:26:26;99981.41;;;16.42;67.64
65394;BME280;52002;49.760;6.512;2022-09-12T07:28:53;99985.83;;;16.35;67.67
65394;BME280;52002;49.760;6.512;2022-09-12T07:31:25;99986.19;;;16.23;67.64
65394;BME280;52002;49.760;6.512;2022-09-12T07:33:52;99978.65;;;16.15;68.01
65394;BME280;52002;49.760;6.512;2022-09-12T07:36:20;99982.20;;;16.15;68.16
65394;BME280;52002;49.760;6.512;2022-09-12T07:38:53;99983.36;;;16.17;68.25
65394;BME280;52002;49.760;6.512;2022-09-12T07:41:31;99989.22;;;16.24;68.08
65394;BME280;52002;49.760;6.512;2022-09-12T07:43:56;99992.58;;;16.31;68.11
65394;BME280;52002;49.760;6.512;2022-09-12T07:46:24;99983.08;;;16.43;67.96
65394;BME280;52002;49.760;6.512;2022-09-12T07:48:53;99982.17;;;16.59;67.92
65394;BME280;52002;49.760;6.512;2022-09-12T07:51:20;99982.45;;;16.68;67.53
65394;BME280;52002;49.760;6.512;2022-09-12T07:53:48;99977.84;;;16.77;67.55
65394;BME280;52002;49.760;6.512;2022-09-12T07:56:15;99983.89;;;16.83;67.50
65394;BME280;52002;49.760;6.512;2022-09-12T07:58:42;99978.69;;;16.82;67.17
65394;BME280;52002;49.760;6.512;2022-09-12T08:01:14;99972.98;;;16.77;67.19
65394;BME280;52002;49.760;6.512;2022-09-12T08:03:42;99978.20;;;16.74;67.31
65394;BME280;52002;49.760;6.512;2022-09-12T08:06:16;99981.62;;;16.68;67.40
65394;BME280;52002;49.760;6.512;2022-09-12T08:08:48;99979.08;;;16.66;67.63
65394;BME280;52002;49.760;6.512;2022-09-12T08:11:18;99979.92;;;16.71;67.55
65394;BME280;52002;49.760;6.512;2022-09-12T08:13:45;99979.88;;;16.75;67.45
65394;BME280;52002;49.760;6.512;2022-09-12T08:16:17;99983.55;;;16.82;67.35
65394;BME280;52002;49.760;6.512;2022-09-12T08:18:46;99985.37;;;16.86;67.29
65394;BME280;52002;49.760;6.512;2022-09-12T08:21:15;99968.69;;;16.91;67.24
65394;BME280;52002;49.760;6.512;2022-09-12T08:23:44;99980.00;;;17.13;67.12
65394;BME280;52002;49.760;6.512;2022-09-12T08:26:11;99972.23;;;17.34;66.90
65394;BME280;52002;49.760;6.512;2022-09-12T08:28:38;99966.78;;;17.42;66.70
65394;BME280;52002;49.760;6.512;2022-09-12T08:31:08;99967.31;;;17.41;66.51
65394;BME280;52002;49.760;6.512;2022-09-12T08:33:38;99973.72;;;17.40;66.50
65394;BME280;52002;49.760;6.512;2022-09-12T08:36:15;99984.55;;;17.36;66.64
65394;BME280;52002;49.760;6.512;2022-09-12T08:38:45;99980.85;;;17.33;66.68
65394;BME280;52002;49.760;6.512;2022-09-12T08:41:37;99983.36;;;17.35;66.93
65394;BME280;52002;49.760;6.512;2022-09-12T08:47:25;99989.25;;;17.38;66.76
65394;BME280;52002;49.760;6.512;2022-09-12T08:52:58;99987.13;;;17.49;66.90
65394;BME280;52002;49.760;6.512;2022-09-12T08:55:35;99987.43;;;17.54;66.88
65394;BME280;52002;49.760;6.512;2022-09-12T08:58:12;99981.14;;;17.57;66.98
65394;BME280;52002;49.760;6.512;2022-09-12T09:01:02;99979.73;;;17.66;67.00
65394;BME280;52002;49.760;6.512;2022-09-12T09:18:26;99965.46;;;17.91;67.62
65394;BME280;52002;49.760;6.512;2022-09-12T09:21:07;99958.63;;;17.99;67.95
65394;BME280;52002;49.760;6.512;2022-09-12T09:23:39;99959.20;;;18.10;68.01
65394;BME280;52002;49.760;6.512;2022-09-12T09:26:21;99967.39;;;18.16;67.90
65394;BME280;52002;49.760;6.512;2022-09-12T09:29:01;99955.81;;;18.23;68.18
65394;BME280;52002;49.760;6.512;2022-09-12T09:31:29;99961.95;;;18.31;68.18
65394;BME280;52002;49.760;6.512;2022-09-12T09:33:57;99958.19;;;18.37;68.05
65394;BME280;52002;49.760;6.512;2022-09-12T09:36:39;99953.88;;;18.42;68.01
65394;BME280;52002;49.760;6.512;2022-09-12T09:39:22;99943.67;;;18.48;68.29
65394;BME280;52002;49.760;6.512;2022-09-12T09:42:07;99943.75;;;18.55;67.90
65394;BME280;52002;49.760;6.512;2022-09-12T09:44:29;99944.52;;;18.60;67.56
65394;BME280;52002;49.760;6.512;2022-09-12T09:46:57;99941.71;;;18.68;67.68
65394;BME280;52002;49.760;6.512;2022-09-12T09:49:25;99931.28;;;18.76;67.87
65394;BME280;52002;49.760;6.512;2022-09-12T09:51:53;99924.70;;;18.85;68.38
65394;BME280;52002;49.760;6.512;2022-09-12T09:54:30;99920.89;;;18.94;68.41
65394;BME280;52002;49.760;6.512;2022-09-12T09:57:03;99920.09;;;19.01;68.21
65394;BME280;52002;49.760;6.512;2022-09-12T09:59:32;99916.95;;;19.08;68.39
65394;BME280;52002;49.760;6.512;2022-09-12T10:02:21;99905.80;;;19.18;68.09
65394;BME280;52002;49.760;6.512;2022-09-12T10:04:57;99902.22;;;19.28;67.65
65394;BME280;52002;49.760;6.512;2022-09-12T10:07:24;99901.66;;;19.39;67.65
65394;BME280;52002;49.760;6.512;2022-09-12T10:12:43;99894.34;;;19.62;67.04
65394;BME280;52002;49.760;6.512;2022-09-12T10:15:21;99896.80;;;19.74;66.65
65394;BME280;52002;49.760;6.512;2022-09-12T10:17:51;99889.53;;;19.81;66.03
65394;BME280;52002;49.760;6.512;2022-09-12T10:20:40;99892.16;;;19.85;65.37
65394;BME280;52002;49.760;6.512;2022-09-12T10:26:11;99886.65;;;20.00;65.12
65394;BME280;52002;49.760;6.512;2022-09-12T10:28:41;99889.67;;;20.26;64.38
65394;BME280;52002;49.760;6.512;2022-09-12T10:31:15;99882.29;;;20.37;64.04
65394;BME280;52002;49.760;6.512;2022-09-12T10:33:47;99876.38;;;20.44;63.46
65394;BME280;52002;49.760;6.512;2022-09-12T10:36:19;99871.91;;;20.47;63.37
65394;BME280;52002;49.760;6.512;2022-09-12T10:38:57;99874.73;;;20.57;63.40
65394;BME280;52002;49.760;6.512;2022-09-12T10:41:20;99867.22;;;20.59;62.81
65394;BME280;52002;49.760;6.512;2022-09-12T10:43:47;99872.24;;;20.62;62.38
65394;BME280;52002;49.760;6.512;2022-09-12T10:48:55;99875.69;;;20.67;62.10
65394;BME280;52002;49.760;6.512;2022-09-12T10:51:38;99870.17;;;20.71;62.13
65394;BME280;52002;49.760;6.512;2022-09-12T10:54:07;99860.90;;;20.76;62.20
65394;BME280;52002;49.760;6.512;2022-09-12T11:02:28;99864.78;;;20.98;60.94
65394;BME280;52002;49.760;6.512;2022-09-12T11:08:13;99859.88;;;21.11;60.33
65394;BME280;52002;49.760;6.512;2022-09-12T11:11:17;99851.00;;;21.19;60.17
65394;BME280;52002;49.760;6.512;2022-09-12T11:14:09;99846.59;;;21.25;60.05
65394;BME280;52002;49.760;6.512;2022-09-12T11:19:34;99844.90;;;21.37;59.46
65394;BME280;52002;49.760;6.512;2022-09-12T11:22:26;99844.69;;;21.46;59.13
65394;BME280;52002;49.760;6.512;2022-09-12T11:30:38;99844.23;;;21.69;58.48
65394;BME280;52002;49.760;6.512;2022-09-12T11:36:06;99841.27;;;21.84;57.81
65394;BME280;52002;49.760;6.512;2022-09-12T11:39:07;99844.16;;;21.89;57.57
65394;BME280;52002;49.760;6.512;2022-09-12T11:41:37;99828.66;;;21.96;56.95
65394;BME280;52002;49.760;6.512;2022-09-12T11:44:42;99827.97;;;22.08;55.91
65394;BME280;52002;49.760;6.512;2022-09-12T11:46:46;99821.37;;;22.13;55.32
65394;BME280;52002;49.760;6.512;2022-09-12T11:49:25;99821.95;;;22.22;55.45
65394;BME280;52002;49.760;6.512;2022-09-12T11:52:10;99814.05;;;22.29;55.18
65394;BME280;52002;49.760;6.512;2022-09-12T11:54:43;99812.14;;;22.37;54.49
65394;BME280;52002;49.760;6.512;2022-09-12T12:03:13;99803.37;;;22.67;52.96
65394;BME280;52002;49.760;6.512;2022-09-12T12:05:48;99808.70;;;22.80;51.01
65394;BME280;52002;49.760;6.512;2022-09-12T12:08:22;99808.44;;;22.88;49.62
65394;BME280;52002;49.760;6.512;2022-09-12T12:13:22;99802.55;;;23.01;48.69
65394;BME280;52002;49.760;6.512;2022-09-12T12:15:51;99801.95;;;23.08;48.39
65394;BME280;52002;49.760;6.512;2022-09-12T12:20:50;99797.55;;;23.23;46.12
65394;BME280;52002;49.760;6.512;2022-09-12T12:23:26;99804.73;;;23.27;45.58
65394;BME280;52002;49.760;6.512;2022-09-12T12:31:11;99800.34;;;23.44;45.89
65394;BME280;52002;49.760;6.512;2022-09-12T12:38:55;99799.34;;;23.67;45.19
65394;BME280;52002;49.760;6.512;2022-09-12T12:43:51;99786.42;;;23.71;45.03
65394;BME280;52002;49.760;6.512;2022-09-12T12:46:19;99783.52;;;23.75;44.61
65394;BME280;52002;49.760;6.512;2022-09-12T12:48:48;99789.88;;;23.78;44.63
65394;BME280;52002;49.760;6.512;2022-09-12T12:54:03;99779.49;;;23.87;44.65
65394;BME280;52002;49.760;6.512;2022-09-12T12:56:37;99774.25;;;23.95;44.68
65394;BME280;52002;49.760;6.512;2022-09-12T12:59:05;99764.13;;;24.02;44.30
65394;BME280;52002;49.760;6.512;2022-09-12T13:01:50;99762.36;;;24.08;43.90
65394;BME280;52002;49.760;6.512;2022-09-12T13:04:14;99757.73;;;24.08;43.71
65394;BME280;52002;49.760;6.512;2022-09-12T13:07:03;99747.72;;;24.12;43.57
65394;BME280;52002;49.760;6.512;2022-09-12T13:09:32;99742.57;;;24.13;43.72
65394;BME280;52002;49.760;6.512;2022-09-12T13:12:08;99741.30;;;24.15;43.22
65394;BME280;52002;49.760;6.512;2022-09-12T13:17:27;99742.96;;;24.16;42.39
65394;BME280;52002;49.760;6.512;2022-09-12T13:20:58;99736.96;;;24.17;41.85
65394;BME280;52002;49.760;6.512;2022-09-12T13:22:41;99737.20;;;24.15;41.60
65394;BME280;52002;49.760;6.512;2022-09-12T13:27:57;99731.81;;;24.18;41.44
65394;BME280;52002;49.760;6.512;2022-09-12T13:30:33;99721.66;;;24.16;41.05
65394;BME280;52002;49.760;6.512;2022-09-12T13:33:08;99723.88;;;24.16;40.89
65394;BME280;52002;49.760;6.512;2022-09-12T13:35:55;99720.90;;;24.18;40.82
65394;BME280;52002;49.760;6.512;2022-09-12T13:43:44;99715.17;;;24.29;40.92
65394;BME280;52002;49.760;6.512;2022-09-12T13:46:12;99712.50;;;24.31;40.86
65394;BME280;52002;49.760;6.512;2022-09-12T13:48:40;99711.48;;;24.35;40.94
65394;BME280;52002;49.760;6.512;2022-09-12T13:51:06;99713.53;;;24.39;40.84
65394;BME280;52002;49.760;6.512;2022-09-12T13:53:41;99706.52;;;24.44;40.92
65394;BME280;52002;49.760;6.512;2022-09-12T13:56:08;99710.87;;;24.54;41.11
65394;BME280;52002;49.760;6.512;2022-09-12T13:58:58;99709.05;;;24.81;40.69
65394;BME280;52002;49.760;6.512;2022-09-12T14:01:38;99707.12;;;26.33;39.81
65394;BME280;52002;49.760;6.512;2022-09-12T14:04:19;99709.68;;;29.23;37.70
65394;BME280;52002;49.760;6.512;2022-09-12T14:07:10;99718.77;;;32.04;34.64
65394;BME280;52002;49.760;6.512;2022-09-12T14:09:39;99718.63;;;34.97;30.94
65394;BME280;52002;49.760;6.512;2022-09-12T14:12:28;99717.06;;;37.05;28.79
65394;BME280;52002;49.760;6.512;2022-09-12T14:15:05;99716.63;;;38.62;26.30
65394;BME280;52002;49.760;6.512;2022-09-12T14:17:34;99702.45;;;40.35;24.69
65394;BME280;52002;49.760;6.512;2022-09-12T14:20:15;99702.06;;;41.86;23.17
65394;BME280;52002;49.760;6.512;2022-09-12T14:22:42;99698.33;;;43.19;21.69
65394;BME280;52002;49.760;6.512;2022-09-12T14:25:15;99687.17;;;44.50;20.63
65394;BME280;52002;49.760;6.512;2022-09-12T14:27:47;99676.05;;;45.52;19.24
65394;BME280;52002;49.760;6.512;2022-09-12T14:35:42;99680.39;;;47.81;16.78
65394;BME280;52002;49.760;6.512;2022-09-12T14:40:44;99663.94;;;48.56;15.14
65394;BME280;52002;49.760;6.512;2022-09-12T14:43:24;99656.45;;;48.54;15.23
65394;BME280;52002;49.760;6.512;2022-09-12T14:45:56;99652.77;;;49.15;14.79
65394;BME280;52002;49.760;6.512;2022-09-12T14:48:24;99658.27;;;49.58;13.91
65394;BME280;52002;49.760;6.512;2022-09-12T14:50:56;99649.61;;;49.50;13.63
65394;BME280;52002;49.760;6.512;2022-09-12T14:53:23;99660.45;;;49.70;13.47
65394;BME280;52002;49.760;6.512;2022-09-12T14:56:05;99649.13;;;50.00;13.27
65394;BME280;52002;49.760;6.512;2022-09-12T14:58:35;99659.45;;;50.58;12.83
65394;BME280;52002;49.760;6.512;2022-09-12T15:01:20;99653.33;;;50.63;12.29
65394;BME280;52002;49.760;6.512;2022-09-12T15:03:36;99643.00;;;50.80;12.29
65394;BME280;52002;49.760;6.512;2022-09-12T15:08:55;99643.08;;;51.11;11.84
65394;BME280;52002;49.760;6.512;2022-09-12T15:11:22;99644.92;;;51.29;11.96
65394;BME280;52002;49.760;6.512;2022-09-12T15:13:48;99646.26;;;51.36;11.59
65394;BME280;52002;49.760;6.512;2022-09-12T15:16:14;99638.08;;;51.57;11.50
65394;BME280;52002;49.760;6.512;2022-09-12T15:18:40;99649.68;;;51.70;11.22
65394;BME280;52002;49.760;6.512;2022-09-12T15:21:07;99643.20;;;51.97;11.04
65394;BME280;52002;49.760;6.512;2022-09-12T15:26:11;99639.60;;;51.78;10.45
65394;BME280;52002;49.760;6.512;2022-09-12T15:28:39;99634.31;;;51.33;10.46
65394;BME280;52002;49.760;6.512;2022-09-12T15:31:23;99635.28;;;50.84;10.51
65394;BME280;52002;49.760;6.512;2022-09-12T15:33:43;99640.58;;;50.33;10.68
65394;BME280;52002;49.760;6.512;2022-09-12T15:36:11;99630.73;;;49.92;10.94
65394;BME280;52002;49.760;6.512;2022-09-12T15:38:38;99640.20;;;49.68;10.86
65394;BME280;52002;49.760;6.512;2022-09-12T15:41:07;99634.26;;;49.33;11.03
65394;BME280;52002;49.760;6.512;2022-09-12T15:43:38;99633.34;;;49.10;11.14
65394;BME280;52002;49.760;6.512;2022-09-12T15:46:04;99617.02;;;48.69;11.18
65394;BME280;52002;49.760;6.512;2022-09-12T15:48:31;99618.66;;;48.59;11.25
65394;BME280;52002;49.760;6.512;2022-09-12T15:50:57;99616.66;;;48.31;11.47